createdAt,value
2018-09-26T00:02:00.464Z,102370.73
2018-09-26T00:04:31.099Z,102376.02
2018-09-26T00:07:00.634Z,102374.70
2018-09-26T00:09:30.326Z,102368.95
2018-09-26T00:11:59.512Z,102353.09
2018-09-26T00:14:29.274Z,102353.98
2018-09-26T00:16:58.505Z,102334.59
2018-09-26T00:19:27.828Z,102284.14
2018-09-26T00:21:57.643Z,102324.95
2018-09-26T00:24:26.938Z,102316.12
2018-09-26T00:26:56.565Z,102300.27
2018-09-26T00:29:27.041Z,102290.55
2018-09-26T00:31:57.150Z,102290.59
2018-09-26T00:34:27.110Z,102269.91
2018-09-26T00:36:56.937Z,102277.37
2018-09-26T00:39:26.448Z,102262.84
2018-09-26T00:41:55.729Z,102245.20
2018-09-26T00:44:25.218Z,102239.52
2018-09-26T00:46:54.960Z,102226.70
2018-09-26T00:49:24.485Z,102230.27
2018-09-26T00:51:53.854Z,102236.02
2018-09-26T00:54:23.401Z,102238.69
2018-09-26T00:56:53.258Z,102247.48
2018-09-26T00:59:23.514Z,102252.73
2018-09-26T01:01:53.244Z,102249.23
2018-09-26T01:04:22.544Z,102232.51
2018-09-26T01:06:52.110Z,102221.08
2018-09-26T01:09:21.537Z,102216.65
2018-09-26T01:11:51.027Z,102218.86
2018-09-26T01:14:20.702Z,102207.00
2018-09-26T01:16:50.035Z,102214.03
2018-09-26T01:19:19.219Z,102212.28
2018-09-26T01:21:48.535Z,102202.57
2018-09-26T01:24:17.861Z,102187.17
2018-09-26T01:26:47.443Z,102182.31
2018-09-26T01:29:17.222Z,102166.42
2018-09-26T01:31:46.533Z,102172.63
2018-09-26T01:34:16.380Z,102159.39
2018-09-26T01:36:45.940Z,102157.63
2018-09-26T01:39:15.378Z,102158.52
2018-09-26T01:41:44.763Z,102151.00
2018-09-26T01:44:14.162Z,102154.08
2018-09-26T01:46:43.664Z,102146.59
2018-09-26T01:49:13.060Z,102138.23
2018-09-26T01:51:43.274Z,102136.02
2018-09-26T01:54:12.958Z,102147.06
2018-09-26T01:56:42.535Z,102130.34
2018-09-26T01:59:12.082Z,102122.38
2018-09-26T02:01:41.422Z,102117.12
2018-09-26T02:04:11.113Z,102101.25
2018-09-26T02:06:41.142Z,102108.78
2018-09-26T02:09:12.300Z,102105.22
2018-09-26T02:11:41.754Z,102094.24
2018-09-26T02:14:10.969Z,102088.03
2018-09-26T02:16:40.628Z,102091.59
2018-09-26T02:19:09.857Z,102090.70
2018-09-26T02:21:39.380Z,102085.83
2018-09-26T02:24:08.715Z,102088.06
2018-09-26T02:26:38.543Z,102090.70
2018-09-26T02:29:08.243Z,102068.64
2018-09-26T02:31:37.907Z,102096.79
2018-09-26T02:34:07.731Z,102083.52
2018-09-26T02:36:37.177Z,102072.88
2018-09-26T02:39:08.436Z,102069.77
2018-09-26T02:41:37.846Z,102070.23
2018-09-26T02:44:07.155Z,102052.62
2018-09-26T02:46:36.804Z,102041.12
2018-09-26T02:49:07.234Z,102039.73
2018-09-26T02:51:37.964Z,102034.83
2018-09-26T02:54:08.501Z,102011.98
2018-09-26T02:56:37.880Z,101992.58
2018-09-26T02:59:07.119Z,101984.67
2018-09-26T03:01:36.646Z,101967.02
2018-09-26T03:04:05.921Z,101960.01
2018-09-26T03:06:35.128Z,101954.27
2018-09-26T03:09:05.009Z,101956.48
2018-09-26T03:11:34.221Z,101939.29
2018-09-26T03:14:03.646Z,101931.83
2018-09-26T03:16:33.213Z,101927.41
2018-09-26T03:19:02.346Z,101932.70
2018-09-26T03:21:31.910Z,101912.43
2018-09-26T03:24:01.199Z,101908.92
2018-09-26T03:26:30.953Z,101886.91
2018-09-26T03:29:00.104Z,101894.84
2018-09-26T03:31:29.463Z,101881.63
2018-09-26T03:33:59.499Z,101875.91
2018-09-26T03:36:28.988Z,101866.66
2018-09-26T03:38:58.233Z,101853.01
2018-09-26T03:41:27.764Z,101855.20
2018-09-26T03:43:56.961Z,101853.44
2018-09-26T03:46:26.678Z,101850.39
2018-09-26T03:48:56.086Z,101838.07
2018-09-26T03:51:25.956Z,101839.41
2018-09-26T03:53:55.501Z,101832.36
2018-09-26T03:56:24.939Z,101816.55
2018-09-26T03:58:55.465Z,101792.78
2018-09-26T04:01:25.355Z,101768.58
2018-09-26T04:03:55.572Z,101770.80
2018-09-26T04:06:25.550Z,101764.66
2018-09-26T04:08:57.340Z,101757.16
2018-09-26T04:11:26.768Z,101749.23
2018-09-26T04:13:56.877Z,101756.27
2018-09-26T04:16:26.722Z,101744.39
2018-09-26T04:18:59.576Z,101732.51
2018-09-26T04:21:29.018Z,101724.14
2018-09-26T04:23:58.650Z,101707.42
2018-09-26T04:26:28.388Z,101695.95
2018-09-26T04:28:58.423Z,101692.86
2018-09-26T04:31:27.933Z,101690.22
2018-09-26T04:33:57.783Z,101681.39
2018-09-26T04:36:27.486Z,101673.92
2018-09-26T04:38:57.599Z,101666.84
2018-09-26T04:41:27.039Z,101657.61
2018-09-26T04:43:56.806Z,101661.55
2018-09-26T04:46:26.819Z,101641.73
2018-09-26T04:48:56.789Z,101636.87
2018-09-26T04:51:26.552Z,101647.45
2018-09-26T04:53:55.878Z,101660.68
2018-09-26T04:56:25.517Z,101632.91
2018-09-26T04:58:54.946Z,101626.30
2018-09-26T05:01:24.314Z,101607.33
2018-09-26T05:03:53.719Z,101580.44
2018-09-26T05:06:24.344Z,101576.05
2018-09-26T05:09:00.180Z,101587.47
2018-09-26T05:11:29.805Z,101584.82
2018-09-26T05:13:59.309Z,101597.59
2018-09-26T05:16:29.079Z,101590.09
2018-09-26T05:18:58.783Z,101573.41
2018-09-26T05:21:28.274Z,101612.53
2018-09-26T05:23:57.930Z,101598.02
2018-09-26T05:26:27.703Z,101605.91
2018-09-26T05:28:57.203Z,101587.40
2018-09-26T05:31:27.576Z,101594.48
2018-09-26T05:33:57.491Z,101585.71
2018-09-26T05:36:26.782Z,101579.10
2018-09-26T05:38:56.310Z,101578.65
2018-09-26T05:41:26.282Z,101588.36
2018-09-26T05:43:55.902Z,101572.50
2018-09-26T05:46:25.872Z,101576.94
2018-09-26T05:48:55.459Z,101573.86
2018-09-26T05:51:25.215Z,101587.52
2018-09-26T05:53:54.791Z,101577.83
2018-09-26T05:56:24.598Z,101576.98
2018-09-26T05:58:54.181Z,101557.62
2018-09-26T06:01:24.033Z,101542.68
2018-09-26T06:03:53.927Z,101518.88
2018-09-26T06:06:23.751Z,101515.34
2018-09-26T06:08:53.638Z,101523.27
2018-09-26T06:11:23.318Z,101532.52
2018-09-26T06:13:53.019Z,101519.26
2018-09-26T06:16:22.662Z,101528.05
2018-09-26T06:18:52.005Z,101527.59
2018-09-26T06:21:21.383Z,101485.29
2018-09-26T06:23:50.931Z,101506.44
2018-09-26T06:26:20.229Z,101506.42
2018-09-26T06:28:49.562Z,101484.44
2018-09-26T06:31:18.921Z,101488.78
2018-09-26T06:33:48.124Z,101490.95
2018-09-26T06:36:17.437Z,101461.87
2018-09-26T06:38:47.318Z,101467.62
2018-09-26T06:41:16.848Z,101479.08
2018-09-26T06:43:46.133Z,101478.22
2018-09-26T06:46:15.655Z,101466.77
2018-09-26T06:48:45.207Z,101385.45
2018-09-26T06:51:14.993Z,101463.66
2018-09-26T06:53:44.421Z,101460.59
2018-09-26T06:56:13.803Z,101464.13
2018-09-26T06:58:43.121Z,101453.09
2018-09-26T07:01:12.794Z,101459.72
2018-09-26T07:03:43.389Z,101451.77
2018-09-26T07:06:12.939Z,101444.72
2018-09-26T07:08:42.586Z,101325.66
2018-09-26T07:11:11.568Z,101435.91
2018-09-26T07:13:41.177Z,101438.95
2018-09-26T07:16:16.820Z,101416.44
2018-09-26T07:18:46.406Z,101420.42
2018-09-26T07:21:15.958Z,101432.33
2018-09-26T07:23:45.765Z,101395.38
2018-09-26T07:26:15.195Z,101421.75
2018-09-26T07:28:44.661Z,101399.27
2018-09-26T07:31:14.361Z,101393.54
2018-09-26T07:33:43.832Z,101391.36
2018-09-26T07:36:12.940Z,101383.90
2018-09-26T07:38:42.533Z,101394.95
2018-09-26T07:41:11.866Z,101387.48
2018-09-26T07:43:41.045Z,101380.84
2018-09-26T07:46:10.411Z,101394.97
2018-09-26T07:48:39.754Z,101398.06
2018-09-26T07:51:08.961Z,101396.28
2018-09-26T07:53:38.082Z,101395.41
2018-09-26T07:56:07.765Z,101406.84
2018-09-26T07:58:37.069Z,101419.18
2018-09-26T08:01:06.458Z,101409.95
2018-09-26T08:03:35.873Z,101405.95
2018-09-26T08:06:05.121Z,101401.09
2018-09-26T08:08:34.506Z,101409.45
2018-09-26T08:11:03.619Z,101403.73
2018-09-26T08:13:32.590Z,101397.98
2018-09-26T08:16:02.292Z,101413.84
2018-09-26T08:18:31.411Z,101407.66
2018-09-26T08:21:00.754Z,101423.53
2018-09-26T08:23:30.000Z,101412.48
2018-09-26T08:25:59.213Z,101405.02
2018-09-26T08:28:28.554Z,101400.59
2018-09-26T08:30:58.021Z,101390.00
2018-09-26T08:33:27.132Z,101381.14
2018-09-26T08:35:56.481Z,101398.75
2018-09-26T08:38:26.058Z,101402.28
2018-09-26T08:40:55.378Z,101385.48
2018-09-26T08:43:24.912Z,101386.81
2018-09-26T08:45:54.582Z,101398.25
2018-09-26T08:48:24.608Z,101390.73
2018-09-26T08:50:53.684Z,101386.31
2018-09-26T08:53:23.625Z,101361.19
2018-09-26T08:55:52.817Z,101358.08
2018-09-26T08:58:23.072Z,101358.93
2018-09-26T09:00:55.153Z,101379.66
2018-09-26T09:03:24.240Z,101376.11
2018-09-26T09:05:53.405Z,101354.92
2018-09-26T09:08:23.876Z,101354.00
2018-09-26T09:10:53.391Z,101336.81
2018-09-26T09:13:22.524Z,101337.27
2018-09-26T09:15:51.774Z,101331.50
2018-09-26T09:18:21.479Z,101330.67
2018-09-26T09:20:50.751Z,101330.74
2018-09-26T09:23:20.084Z,101320.16
2018-09-26T09:25:49.291Z,101306.93
2018-09-26T09:28:18.519Z,101292.41
2018-09-26T09:30:47.786Z,101274.33
2018-09-26T09:33:17.031Z,101263.77
2018-09-26T09:35:46.270Z,101253.61
2018-09-26T09:38:15.648Z,101253.13
2018-09-26T09:40:45.222Z,101238.64
2018-09-26T09:43:14.305Z,101259.34
2018-09-26T09:45:44.108Z,101257.57
2018-09-26T09:48:13.521Z,101250.05
2018-09-26T09:50:42.799Z,101244.31
2018-09-26T09:53:12.179Z,101242.12
2018-09-26T09:55:41.296Z,101226.22
2018-09-26T09:58:10.531Z,101228.42
2018-09-26T10:00:44.593Z,101212.57
2018-09-26T10:03:14.130Z,101229.72
2018-09-26T10:05:43.537Z,101213.42
2018-09-26T10:08:12.567Z,101210.70
2018-09-26T10:10:41.976Z,101216.48
2018-09-26T10:13:11.411Z,101223.95
2018-09-26T10:15:40.452Z,101222.52
2018-09-26T10:18:09.668Z,101220.26
2018-09-26T10:20:38.901Z,101222.97
2018-09-26T10:23:08.074Z,101223.81
2018-09-26T10:25:37.946Z,101208.79
2018-09-26T10:28:07.391Z,101207.91
2018-09-26T10:30:37.038Z,101215.03
2018-09-26T10:33:06.521Z,101218.52
2018-09-26T10:35:35.988Z,101213.23
2018-09-26T10:38:05.553Z,101223.84
2018-09-26T10:40:35.217Z,101209.73
2018-09-26T10:43:04.808Z,101209.73
2018-09-26T10:45:34.029Z,101222.99
2018-09-26T10:48:03.508Z,101219.44
2018-09-26T10:50:32.753Z,101216.84
2018-09-26T10:53:02.051Z,101222.97
2018-09-26T10:55:31.416Z,101225.61
2018-09-26T10:58:00.652Z,101212.29
2018-09-26T11:00:30.461Z,101104.96
2018-09-26T11:02:59.856Z,101192.53
2018-09-26T11:05:29.282Z,101173.51
2018-09-26T11:07:58.427Z,101175.23
2018-09-26T11:10:28.007Z,101192.48
2018-09-26T11:12:57.418Z,101193.80
2018-09-26T11:36:54.275Z,101169.52
2018-09-26T11:39:23.363Z,101171.25
2018-09-26T11:41:52.716Z,101192.41
2018-09-26T11:44:22.203Z,101188.88
2018-09-26T11:46:51.450Z,101177.29
2018-09-26T11:49:20.830Z,101179.97
2018-09-26T11:51:50.355Z,101175.56
2018-09-26T11:54:19.471Z,101166.22
2018-09-26T11:56:48.750Z,101193.18
2018-09-26T11:59:18.617Z,101180.78
2018-09-26T12:01:47.776Z,101163.94
2018-09-26T12:04:17.757Z,101187.27
2018-09-26T12:06:47.044Z,101168.20
2018-09-26T12:09:16.249Z,101166.47
2018-09-26T12:11:46.041Z,101151.91
2018-09-26T12:14:16.189Z,101148.73
2018-09-26T12:16:45.753Z,101141.71
2018-09-26T12:19:15.112Z,101153.52
2018-09-26T12:21:44.326Z,101144.16
2018-09-26T12:24:13.597Z,101138.86
2018-09-26T12:26:42.808Z,101040.13
2018-09-26T12:29:12.079Z,101156.93
2018-09-26T12:31:41.224Z,101144.88
2018-09-26T12:34:10.995Z,101154.52
2018-09-26T12:36:40.474Z,101177.41
2018-09-26T12:39:10.809Z,101158.94
2018-09-26T12:41:40.345Z,101149.98
2018-09-26T12:44:09.898Z,101126.13
2018-09-26T12:46:40.285Z,101121.18
2018-09-26T12:49:09.481Z,101115.73
2018-09-26T12:51:39.180Z,101121.97
2018-09-26T12:54:08.472Z,101121.93
2018-09-26T12:56:38.120Z,101112.65
2018-09-26T12:59:07.572Z,101125.20
2018-09-26T13:01:37.115Z,101133.11
2018-09-26T13:04:07.465Z,101153.34
2018-09-26T13:06:38.196Z,101119.41
2018-09-26T13:09:07.515Z,101092.28
2018-09-26T13:11:37.475Z,101096.59
2018-09-26T13:14:07.426Z,101112.59
2018-09-26T13:17:07.661Z,101116.62
2018-09-26T13:19:37.528Z,101112.60
2018-09-26T13:22:07.179Z,101131.95
2018-09-26T13:24:36.310Z,101140.78
2018-09-26T13:27:05.515Z,101143.00
2018-09-26T13:29:35.707Z,101131.94
2018-09-26T13:32:06.362Z,101135.92
2018-09-26T13:34:35.939Z,101134.52
2018-09-26T13:37:05.367Z,101133.17
2018-09-26T13:39:34.860Z,101122.97
2018-09-26T13:42:05.758Z,101120.36
2018-09-26T13:44:35.771Z,101127.42
2018-09-26T13:47:05.093Z,101118.98
2018-09-26T13:49:34.429Z,101140.16
2018-09-26T13:52:05.431Z,101138.87
2018-09-26T13:54:35.791Z,101144.58
2018-09-26T13:57:05.279Z,101174.63
2018-09-26T13:59:34.675Z,101159.97
2018-09-26T14:02:05.110Z,101163.53
2018-09-26T14:04:34.402Z,101139.58
2018-09-26T14:07:03.680Z,101142.67
2018-09-26T14:09:32.980Z,101138.70
2018-09-26T14:12:02.354Z,101163.23
2018-09-26T14:14:32.369Z,101176.80
2018-09-26T14:17:01.470Z,101168.53
2018-09-26T14:19:31.839Z,101161.73
2018-09-26T14:22:00.966Z,101159.92
2018-09-26T14:24:30.500Z,101164.48
2018-09-26T14:26:59.858Z,101149.63
2018-09-26T14:29:29.490Z,101067.66
2018-09-26T14:31:58.707Z,101170.57
2018-09-26T14:34:28.828Z,101157.31
2018-09-26T14:36:58.237Z,101145.12
2018-09-26T14:39:28.153Z,101158.28
2018-09-26T14:41:58.326Z,101140.16
2018-09-26T14:44:28.177Z,101136.22
2018-09-26T14:46:57.432Z,101150.19
2018-09-26T14:49:27.059Z,101154.61
2018-09-26T14:51:56.329Z,101144.84
2018-09-26T14:54:30.035Z,101130.79
2018-09-26T14:56:59.738Z,101137.59
2018-09-26T14:59:29.396Z,101131.71
2018-09-26T15:02:00.605Z,101124.64
2018-09-26T15:04:30.620Z,101130.97
2018-09-26T15:07:02.520Z,101126.99
2018-09-26T15:09:33.571Z,101133.62
2018-09-26T15:12:03.189Z,101136.27
2018-09-26T15:14:32.932Z,101133.92
2018-09-26T15:17:02.501Z,101007.58
2018-09-26T15:19:32.654Z,101121.73
2018-09-26T15:22:04.108Z,101143.88
2018-09-26T15:24:33.682Z,101130.83
2018-09-26T15:27:03.222Z,101122.13
2018-09-26T15:29:33.696Z,101135.39
2018-09-26T15:32:03.268Z,101134.41
2018-09-26T15:34:33.159Z,101112.66
2018-09-26T15:37:03.949Z,101089.28
2018-09-26T15:39:33.563Z,101119.33
2018-09-26T15:42:03.835Z,101106.52
2018-09-26T15:44:34.071Z,101106.12
2018-09-26T15:47:04.177Z,101112.23
2018-09-26T15:49:35.230Z,101123.98
2018-09-26T15:52:05.799Z,101119.52
2018-09-26T15:54:36.107Z,101114.22
2018-09-26T15:57:06.525Z,101141.67
2018-09-26T15:59:35.896Z,101132.83
2018-09-26T16:02:07.894Z,101130.23
2018-09-26T16:04:38.965Z,101149.27
2018-09-26T16:07:08.419Z,101152.41
2018-09-26T16:09:37.838Z,101160.41
2018-09-26T16:12:07.886Z,101147.20
2018-09-26T16:14:37.291Z,101164.39
2018-09-26T16:17:07.277Z,101158.16
2018-09-26T16:19:37.912Z,101154.22
2018-09-26T16:22:07.446Z,101149.36
2018-09-26T16:24:37.334Z,101166.64
2018-09-26T16:27:08.463Z,101155.95
2018-09-26T16:29:37.935Z,101163.02
2018-09-26T16:32:07.959Z,101155.02
2018-09-26T16:34:39.259Z,101157.31
2018-09-26T16:37:08.619Z,101163.94
2018-09-26T16:39:39.173Z,101173.67
2018-09-26T16:42:09.438Z,101188.38
2018-09-26T16:44:38.857Z,101204.23
2018-09-26T16:47:08.715Z,101190.09
2018-09-26T16:49:38.826Z,101206.44
2018-09-26T16:52:08.998Z,101218.33
2018-09-26T16:54:38.556Z,101206.00
2018-09-26T16:57:08.250Z,101215.32
2018-09-26T16:59:38.113Z,101223.39
2018-09-26T17:02:07.917Z,101231.78
2018-09-26T17:04:37.335Z,101221.11
2018-09-26T17:07:07.073Z,101232.19
2018-09-26T17:09:36.902Z,101231.19
2018-09-26T17:12:08.373Z,101253.44
2018-09-26T17:14:37.654Z,101262.27
2018-09-26T17:17:07.304Z,101257.11
2018-09-26T17:19:36.956Z,101252.62
2018-09-26T17:22:07.475Z,101255.27
2018-09-26T17:24:36.829Z,101238.97
2018-09-26T17:27:06.634Z,101250.89
2018-09-26T17:29:36.098Z,101245.26
2018-09-26T17:32:05.760Z,101260.64
2018-09-26T17:34:35.283Z,101260.20
2018-09-26T17:37:05.101Z,101269.41
2018-09-26T17:39:34.520Z,101272.16
2018-09-26T17:42:05.090Z,101273.93
2018-09-26T17:44:34.902Z,101283.17
2018-09-26T17:47:04.229Z,101268.63
2018-09-26T17:49:34.016Z,101272.57
2018-09-26T17:52:04.340Z,101286.30
2018-09-26T17:54:34.038Z,101277.09
2018-09-26T17:57:04.434Z,101280.25
2018-09-26T17:59:33.745Z,101273.19
2018-09-26T18:02:06.579Z,101288.67
2018-09-26T18:04:36.376Z,101284.77
2018-09-26T18:07:06.460Z,101295.34
2018-09-26T18:09:36.196Z,101309.46
2018-09-26T18:12:06.040Z,101311.27
2018-09-26T18:14:35.527Z,101278.56
2018-09-26T18:17:05.319Z,101298.08
2018-09-26T18:19:34.918Z,101307.29
2018-09-26T18:22:04.993Z,101293.56
2018-09-26T18:24:35.194Z,101297.61
2018-09-26T18:27:05.082Z,101142.97
2018-09-26T18:29:34.510Z,101320.12
2018-09-26T18:32:05.646Z,101332.45
2018-09-26T18:34:35.088Z,101335.55
2018-09-26T18:37:09.629Z,101324.13
2018-09-26T18:39:39.021Z,101321.89
2018-09-26T18:42:09.558Z,101336.02
2018-09-26T18:44:39.689Z,101230.95
2018-09-26T18:47:09.434Z,101330.81
2018-09-26T18:49:38.587Z,101338.77
2018-09-26T18:52:08.604Z,101344.03
2018-09-26T18:54:38.839Z,101350.21
2018-09-26T18:57:08.568Z,101361.25
2018-09-26T18:59:38.702Z,101361.72
2018-09-26T19:02:08.697Z,101368.75
2018-09-26T19:04:38.288Z,101381.14
2018-09-26T19:07:07.781Z,101376.76
2018-09-26T19:09:37.448Z,101318.75
2018-09-26T19:12:06.984Z,101358.69
2018-09-26T19:14:38.375Z,101364.39
2018-09-26T19:17:07.895Z,101374.14
2018-09-26T19:19:37.511Z,101376.78
2018-09-26T19:22:07.287Z,101384.76
2018-09-26T19:24:39.411Z,101396.20
2018-09-26T19:27:09.506Z,101394.47
2018-09-26T19:29:39.952Z,101427.56
2018-09-26T19:32:09.474Z,101421.79
2018-09-26T19:34:39.408Z,101441.59
2018-09-26T19:37:11.247Z,101441.59
2018-09-26T19:39:41.133Z,101438.59
2018-09-26T19:42:11.382Z,101435.50
2018-09-26T19:44:41.409Z,101427.97
2018-09-26T19:47:11.310Z,101426.23
2018-09-26T19:49:40.831Z,101420.95
2018-09-26T19:52:12.358Z,101425.41
2018-09-26T19:54:42.311Z,101405.48
2018-09-26T19:57:19.412Z,101399.77
2018-09-26T19:59:48.883Z,101404.65
2018-09-26T20:02:18.538Z,101412.59
2018-09-26T20:07:23.534Z,101393.64
2018-09-26T20:09:54.203Z,101405.55
2018-09-26T20:12:23.687Z,101399.92
2018-09-26T20:15:02.003Z,101420.22
2018-09-26T20:17:32.768Z,101401.61
2018-09-26T20:20:16.067Z,101451.05
2018-09-26T20:22:54.172Z,101415.79
2018-09-26T20:25:40.305Z,101425.47
2018-09-26T20:28:10.327Z,101430.77
2018-09-26T20:30:39.841Z,101424.98
2018-09-26T20:33:11.510Z,101415.34
2018-09-26T20:35:41.431Z,101428.09
2018-09-26T20:38:12.533Z,101425.06
2018-09-26T20:40:42.423Z,101426.83
2018-09-26T20:43:12.697Z,101435.20
2018-09-26T20:45:42.446Z,101431.60
2018-09-26T20:48:12.010Z,101432.95
2018-09-26T20:50:42.257Z,101432.07
2018-09-26T20:53:11.835Z,101438.22
2018-09-26T20:55:42.335Z,101443.94
2018-09-26T21:03:56.994Z,101464.23
2018-09-26T21:06:26.685Z,101473.09
2018-09-26T21:08:56.007Z,101482.78
2018-09-26T21:11:25.804Z,101478.86
2018-09-26T21:13:54.808Z,101484.10
2018-09-26T21:16:25.089Z,101470.03
2018-09-26T21:18:54.497Z,101496.94
2018-09-26T21:21:24.656Z,101471.41
2018-09-26T21:23:53.755Z,101476.25
2018-09-26T21:26:23.783Z,101475.78
2018-09-26T21:28:55.456Z,101489.96
2018-09-26T21:31:25.282Z,101485.61
2018-09-26T21:33:54.683Z,101483.80
2018-09-26T21:36:23.851Z,101486.91
2018-09-26T21:38:53.208Z,101497.95
2018-09-26T21:41:24.281Z,101487.41
2018-09-26T21:43:55.656Z,101508.62
2018-09-26T21:46:25.184Z,101514.31
2018-09-26T21:48:56.598Z,101505.13
2018-09-26T21:51:34.416Z,101502.48
2018-09-26T21:54:07.896Z,101507.73
2018-09-26T21:56:38.259Z,101511.30
2018-09-26T21:59:11.357Z,101513.08
2018-09-26T22:01:41.640Z,101503.41
2018-09-26T22:04:13.485Z,101499.84
2018-09-26T22:06:44.982Z,101495.48
2018-09-26T22:09:15.484Z,101483.52
2018-09-26T22:11:46.087Z,101491.02
2018-09-26T22:14:16.855Z,101494.53
2018-09-26T22:16:47.571Z,101513.08
2018-09-26T22:19:17.653Z,101514.85
2018-09-26T22:21:47.412Z,101521.85
2018-09-26T22:24:17.228Z,101523.62
2018-09-26T22:26:46.672Z,101528.91
2018-09-26T22:29:16.528Z,101534.64
2018-09-26T22:31:46.143Z,101541.27
2018-09-26T22:34:15.347Z,101547.45
2018-09-26T22:36:44.435Z,101541.25
2018-09-26T22:39:13.797Z,101566.86
2018-09-26T22:41:43.271Z,101566.86
2018-09-26T22:44:13.858Z,101577.51
2018-09-26T22:46:43.307Z,101580.19
2018-09-26T22:49:12.367Z,101577.99
2018-09-26T22:51:42.468Z,101581.05
2018-09-26T22:54:11.678Z,101571.80
2018-09-26T22:56:42.629Z,101579.75
2018-09-26T22:59:11.957Z,101579.33
2018-09-26T23:01:41.441Z,101583.27
2018-09-26T23:04:11.003Z,101574.08
2018-09-26T23:06:44.843Z,101574.92
2018-09-26T23:09:33.099Z,101574.08
2018-09-26T23:12:03.810Z,101548.02
2018-09-26T23:14:34.056Z,101562.63
2018-09-26T23:17:03.227Z,101555.56
2018-09-26T23:19:32.446Z,101554.23
2018-09-26T23:22:01.436Z,101547.61
2018-09-26T23:24:30.424Z,101544.53
2018-09-26T23:27:00.712Z,101533.94
2018-09-26T23:29:29.919Z,101543.66
2018-09-26T23:32:05.469Z,101520.23
2018-09-26T23:34:35.187Z,101526.83
2018-09-26T23:37:04.426Z,101529.55
2018-09-26T23:39:33.481Z,101537.03
2018-09-26T23:42:02.575Z,101535.29
2018-09-26T23:44:32.629Z,101528.23
2018-09-26T23:47:08.520Z,101539.70
2018-09-26T23:49:38.063Z,101533.08
2018-09-26T23:52:07.499Z,101535.28
2018-09-26T23:54:36.904Z,101555.97
2018-09-26T23:57:06.283Z,101554.69
2018-09-26T23:59:35.866Z,101561.30
